createdAt,value
2018-06-02T00:00:42.228Z,0.00
2018-06-02T00:01:42.201Z,0.00
2018-06-02T00:02:42.178Z,0.00
2018-06-02T00:03:42.157Z,0.00
2018-06-02T00:04:42.145Z,0.00
2018-06-02T00:05:42.112Z,0.00
2018-06-02T00:06:42.090Z,0.00
2018-06-02T00:07:42.069Z,0.00
2018-06-02T00:08:42.047Z,0.00
2018-06-02T00:09:42.024Z,0.00
2018-06-02T00:10:42.003Z,0.00
2018-06-02T00:11:41.981Z,0.00
2018-06-02T00:12:41.961Z,0.00
2018-06-02T00:13:41.942Z,0.00
2018-06-02T00:14:41.922Z,0.00
2018-06-02T00:15:41.894Z,0.00
2018-06-02T00:16:41.875Z,0.00
2018-06-02T00:17:41.851Z,0.00
2018-06-02T00:18:41.834Z,0.00
2018-06-02T00:19:41.805Z,0.00
2018-06-02T00:20:41.785Z,0.00
2018-06-02T00:21:41.768Z,0.00
2018-06-02T00:22:41.740Z,0.00
2018-06-02T00:23:41.719Z,0.00
2018-06-02T00:24:41.697Z,0.00
2018-06-02T00:25:41.675Z,0.00
2018-06-02T00:26:41.655Z,0.00
2018-06-02T00:27:41.632Z,0.00
2018-06-02T00:28:41.611Z,0.00
2018-06-02T00:29:41.588Z,0.00
2018-06-02T00:30:41.565Z,0.00
2018-06-02T00:31:41.546Z,0.00
2018-06-02T00:32:41.527Z,0.00
2018-06-02T00:33:41.500Z,0.00
2018-06-02T00:34:41.479Z,0.00
2018-06-02T00:35:41.458Z,0.00
2018-06-02T00:36:41.437Z,0.00
2018-06-02T00:37:41.414Z,0.00
2018-06-02T00:38:41.392Z,0.00
2018-06-02T00:39:41.371Z,0.00
2018-06-02T00:40:41.348Z,0.00
2018-06-02T00:41:41.326Z,0.00
2018-06-02T00:42:41.304Z,0.00
2018-06-02T00:43:41.283Z,0.00
2018-06-02T00:44:41.272Z,0.00
2018-06-02T00:45:41.239Z,0.00
2018-06-02T00:46:41.217Z,0.00
2018-06-02T00:47:41.195Z,0.00
2018-06-02T00:48:41.172Z,0.00
2018-06-02T00:49:41.151Z,0.00
2018-06-02T00:50:41.129Z,0.00
2018-06-02T00:51:41.107Z,0.00
2018-06-02T00:52:41.086Z,0.00
2018-06-02T00:53:41.067Z,0.00
2018-06-02T00:54:41.044Z,0.00
2018-06-02T00:55:41.020Z,0.00
2018-06-02T00:56:40.999Z,0.00
2018-06-02T00:57:40.975Z,0.00
2018-06-02T00:58:40.955Z,0.00
2018-06-02T00:59:40.932Z,0.00
2018-06-02T01:00:40.919Z,0.00
2018-06-02T01:01:40.886Z,0.00
2018-06-02T01:02:40.896Z,0.00
2018-06-02T01:03:40.852Z,0.00
2018-06-02T01:04:40.826Z,0.00
2018-06-02T01:05:40.800Z,0.00
2018-06-02T01:06:40.785Z,0.00
2018-06-02T01:07:40.756Z,0.00
2018-06-02T01:08:40.734Z,0.00
2018-06-02T01:09:40.713Z,0.00
2018-06-02T01:10:40.690Z,0.00
2018-06-02T01:11:40.669Z,0.00
2018-06-02T01:12:40.647Z,0.00
2018-06-02T01:13:40.629Z,0.00
2018-06-02T01:14:40.602Z,0.00
2018-06-02T01:15:40.582Z,0.00
2018-06-02T01:16:40.561Z,0.00
2018-06-02T01:17:40.536Z,0.00
2018-06-02T01:18:40.667Z,0.00
2018-06-02T01:19:40.493Z,0.00
2018-06-02T01:20:40.472Z,0.00
2018-06-02T01:21:40.448Z,0.00
2018-06-02T01:22:40.427Z,0.00
2018-06-02T01:23:40.405Z,0.00
2018-06-02T01:24:40.383Z,0.00
2018-06-02T01:25:40.361Z,0.00
2018-06-02T01:26:40.342Z,0.00
2018-06-02T01:27:40.317Z,0.00
2018-06-02T01:28:40.298Z,0.00
2018-06-02T01:29:40.280Z,0.00
2018-06-02T01:30:40.250Z,0.00
2018-06-02T01:31:40.229Z,0.00
2018-06-02T01:32:40.208Z,0.00
2018-06-02T01:33:40.185Z,0.00
2018-06-02T01:34:40.165Z,0.00
2018-06-02T01:35:40.143Z,0.00
2018-06-02T01:36:40.122Z,0.00
2018-06-02T01:37:40.098Z,0.00
2018-06-02T01:38:40.079Z,0.00
2018-06-02T01:39:40.055Z,0.00
2018-06-02T01:40:40.033Z,0.00
2018-06-02T01:41:40.014Z,0.00
2018-06-02T01:42:39.989Z,0.00
2018-06-02T01:43:39.968Z,0.00
2018-06-02T01:44:39.945Z,0.00
2018-06-02T01:45:39.929Z,0.00
2018-06-02T01:46:39.901Z,0.00
2018-06-02T01:47:39.879Z,0.00
2018-06-02T01:48:39.864Z,0.00
2018-06-02T01:49:39.834Z,0.00
2018-06-02T01:50:39.817Z,0.00
2018-06-02T01:51:39.791Z,0.00
2018-06-02T01:52:39.770Z,0.00
2018-06-02T01:53:39.750Z,0.00
2018-06-02T01:54:39.726Z,0.00
2018-06-02T01:55:39.704Z,0.00
2018-06-02T01:56:39.683Z,0.00
2018-06-02T01:57:39.663Z,0.00
2018-06-02T01:58:39.639Z,0.00
2018-06-02T01:59:39.618Z,0.00
2018-06-02T02:00:39.595Z,0.00
2018-06-02T02:01:39.574Z,0.00
2018-06-02T02:02:39.551Z,0.00
2018-06-02T02:03:39.530Z,4.00
2018-06-02T02:04:39.507Z,4.00
2018-06-02T02:05:39.485Z,4.00
2018-06-02T02:06:39.464Z,4.00
2018-06-02T02:07:39.443Z,0.00
2018-06-02T02:08:39.421Z,0.00
2018-06-02T02:09:39.400Z,0.00
2018-06-02T02:10:39.375Z,4.00
2018-06-02T02:11:39.361Z,4.00
2018-06-02T02:12:39.334Z,0.00
2018-06-02T02:13:39.311Z,4.00
2018-06-02T02:14:39.289Z,4.00
2018-06-02T02:15:39.268Z,8.00
2018-06-02T02:16:39.247Z,4.00
2018-06-02T02:17:39.374Z,8.00
2018-06-02T02:18:39.203Z,4.00
2018-06-02T02:19:39.181Z,8.00
2018-06-02T02:20:39.160Z,8.00
2018-06-02T02:21:39.137Z,8.00
2018-06-02T02:22:39.117Z,8.00
2018-06-02T02:23:39.093Z,12.00
2018-06-02T02:24:39.074Z,12.00
2018-06-02T02:25:39.050Z,12.00
2018-06-02T02:26:39.029Z,16.00
2018-06-02T02:27:39.015Z,12.00
2018-06-02T02:28:38.985Z,16.00
2018-06-02T02:29:38.964Z,16.00
2018-06-02T02:30:38.947Z,20.00
2018-06-02T02:31:38.921Z,24.00
2018-06-02T02:32:38.899Z,24.00
2018-06-02T02:33:38.877Z,28.00
2018-06-02T02:34:38.856Z,28.00
2018-06-02T02:35:38.834Z,28.00
2018-06-02T02:36:38.823Z,36.00
2018-06-02T02:37:38.791Z,36.00
2018-06-02T02:38:38.769Z,36.00
2018-06-02T02:39:38.749Z,40.00
2018-06-02T02:40:38.727Z,44.00
2018-06-02T02:41:38.706Z,48.00
2018-06-02T02:42:38.682Z,48.00
2018-06-02T02:43:38.661Z,52.00
2018-06-02T02:44:38.644Z,52.00
2018-06-02T02:45:38.617Z,56.00
2018-06-02T02:46:38.596Z,60.00
2018-06-02T02:47:38.575Z,64.00
2018-06-02T02:48:38.554Z,72.00
2018-06-02T02:49:38.530Z,76.00
2018-06-02T02:50:38.508Z,84.00
2018-06-02T02:51:38.491Z,84.00
2018-06-02T02:52:38.616Z,92.00
2018-06-02T02:53:38.442Z,92.00
2018-06-02T02:54:38.422Z,104.00
2018-06-02T02:55:38.399Z,112.00
2018-06-02T02:56:38.382Z,116.00
2018-06-02T02:57:38.361Z,116.00
2018-06-02T02:58:38.335Z,124.00
2018-06-02T02:59:38.314Z,128.00
2018-06-02T03:00:38.295Z,144.00
2018-06-02T03:01:38.270Z,152.00
2018-06-02T03:02:38.249Z,168.00
2018-06-02T03:03:38.230Z,176.00
2018-06-02T03:04:38.205Z,208.00
2018-06-02T03:05:38.185Z,232.00
2018-06-02T03:06:38.162Z,256.00
2018-06-02T03:07:38.140Z,280.00
2018-06-02T03:08:38.119Z,284.00
2018-06-02T03:09:38.097Z,280.00
2018-06-02T03:10:38.075Z,248.00
2018-06-02T03:11:38.059Z,212.00
2018-06-02T03:12:38.035Z,200.00
2018-06-02T03:13:38.013Z,200.00
2018-06-02T03:14:37.995Z,184.00
2018-06-02T03:15:37.967Z,192.00
2018-06-02T03:16:37.950Z,200.00
2018-06-02T03:17:37.924Z,204.00
2018-06-02T03:18:37.902Z,232.00
2018-06-02T03:19:37.883Z,228.00
2018-06-02T03:20:37.860Z,228.00
2018-06-02T03:21:37.837Z,216.00
2018-06-02T03:22:37.825Z,224.00
2018-06-02T03:23:37.794Z,268.00
2018-06-02T03:24:37.773Z,280.00
2018-06-02T03:25:37.751Z,328.00
2018-06-02T03:26:37.730Z,348.00
2018-06-02T03:27:37.708Z,324.00
2018-06-02T03:28:37.687Z,280.00
2018-06-02T03:29:37.668Z,288.00
2018-06-02T03:30:37.646Z,296.00
2018-06-02T03:31:37.628Z,332.00
2018-06-02T03:32:37.601Z,360.00
2018-06-02T03:33:37.583Z,376.00
2018-06-02T03:34:37.557Z,444.00
2018-06-02T03:35:37.539Z,408.00
2018-06-02T03:36:37.515Z,460.00
2018-06-02T03:37:37.495Z,428.00
2018-06-02T03:38:37.472Z,500.00
2018-06-02T03:39:37.449Z,612.00
2018-06-02T03:40:37.429Z,660.00
2018-06-02T03:41:37.407Z,628.00
2018-06-02T03:42:37.385Z,632.00
2018-06-02T03:43:37.364Z,556.00
2018-06-02T03:44:37.343Z,568.00
2018-06-02T03:45:37.319Z,596.00
2018-06-02T03:46:37.308Z,592.00
2018-06-02T03:47:37.281Z,620.00
2018-06-02T03:48:37.266Z,796.00
2018-06-02T03:49:37.236Z,928.00
2018-06-02T03:50:37.215Z,920.00
2018-06-02T03:51:37.192Z,804.00
2018-06-02T03:52:37.178Z,800.00
2018-06-02T03:53:37.150Z,808.00
2018-06-02T03:54:37.128Z,760.00
2018-06-02T03:55:37.111Z,780.00
2018-06-02T03:56:37.086Z,880.00
2018-06-02T03:57:37.064Z,1008.00
2018-06-02T03:58:37.042Z,1072.00
2018-06-02T03:59:37.026Z,1112.00
2018-06-02T04:00:37.000Z,1112.00
2018-06-02T04:01:36.976Z,1136.00
2018-06-02T04:02:36.957Z,1272.00
2018-06-02T04:03:36.935Z,1300.00
2018-06-02T04:04:36.918Z,1180.00
2018-06-02T04:05:36.895Z,1128.00
2018-06-02T04:06:36.875Z,1168.00
2018-06-02T04:07:36.859Z,1212.00
2018-06-02T04:08:36.828Z,1104.00
2018-06-02T04:09:36.807Z,1064.00
2018-06-02T04:10:36.784Z,1128.00
2018-06-02T04:11:36.764Z,1212.00
2018-06-02T04:12:36.744Z,1264.00
2018-06-02T04:13:36.719Z,1276.00
2018-06-02T04:14:36.700Z,1188.00
2018-06-02T04:15:36.677Z,1172.00
2018-06-02T04:16:36.656Z,1204.00
2018-06-02T04:17:36.634Z,1388.00
2018-06-02T04:18:36.613Z,1380.00
2018-06-02T04:19:36.592Z,1400.00
2018-06-02T04:20:36.570Z,1460.00
2018-06-02T04:21:36.551Z,1576.00
2018-06-02T04:22:36.527Z,1468.00
2018-06-02T04:23:36.506Z,1452.00
2018-06-02T04:24:36.485Z,1480.00
2018-06-02T04:25:36.462Z,1436.00
2018-06-02T04:26:36.445Z,1428.00
2018-06-02T04:27:36.434Z,1456.00
2018-06-02T04:28:36.398Z,1520.00
2018-06-02T04:29:36.376Z,1508.00
2018-06-02T04:30:36.366Z,1492.00
2018-06-02T04:31:36.333Z,1536.00
2018-06-02T04:32:36.313Z,1604.00
2018-06-02T04:33:36.290Z,1692.00
2018-06-02T04:34:36.269Z,1692.00
2018-06-02T04:35:36.248Z,1708.00
2018-06-02T04:36:36.225Z,1732.00
2018-06-02T04:37:36.205Z,1780.00
2018-06-02T04:38:36.183Z,1844.00
2018-06-02T04:39:36.161Z,1800.00
2018-06-02T04:40:36.141Z,1764.00
2018-06-02T04:41:36.140Z,1820.00
2018-06-02T04:42:36.097Z,1868.00
2018-06-02T04:43:36.076Z,1848.00
2018-06-02T04:44:36.055Z,1952.00
2018-06-02T04:45:36.034Z,2080.00
2018-06-02T04:46:36.012Z,2228.00
2018-06-02T04:47:35.990Z,2360.00
2018-06-02T04:48:35.973Z,2596.00
2018-06-02T04:49:35.947Z,2664.00
2018-06-02T04:50:35.930Z,2456.00
2018-06-02T04:51:35.904Z,2464.00
2018-06-02T04:52:35.888Z,2728.00
2018-06-02T04:53:35.863Z,2676.00
2018-06-02T04:54:35.840Z,3020.00
2018-06-02T04:55:35.818Z,3124.00
2018-06-02T04:56:35.797Z,2848.00
2018-06-02T04:57:35.781Z,2984.00
2018-06-02T04:58:35.753Z,3204.00
2018-06-02T04:59:35.733Z,3616.00
2018-06-02T05:00:35.713Z,3712.00
2018-06-02T05:01:35.691Z,3632.00
2018-06-02T05:02:35.668Z,3636.00
2018-06-02T05:03:35.646Z,3828.00
2018-06-02T05:04:35.625Z,3340.00
2018-06-02T05:05:35.603Z,3596.00
2018-06-02T05:06:35.582Z,3772.00
2018-06-02T05:07:35.563Z,3744.00
2018-06-02T05:08:35.539Z,4056.00
2018-06-02T05:09:35.517Z,4392.00
2018-06-02T05:10:35.497Z,4240.00
2018-06-02T05:11:35.478Z,4436.00
2018-06-02T05:12:35.453Z,5064.00
2018-06-02T05:13:35.432Z,5420.00
2018-06-02T05:14:35.411Z,5696.00
2018-06-02T05:15:35.389Z,5896.00
2018-06-02T05:16:35.368Z,7116.00
2018-06-02T05:17:35.350Z,7080.00
2018-06-02T05:18:35.324Z,5832.00
2018-06-02T05:19:35.305Z,5600.00
2018-06-02T05:20:35.286Z,5224.00
2018-06-02T05:21:35.262Z,4688.00
2018-06-02T05:22:35.241Z,4708.00
2018-06-02T05:23:35.217Z,4868.00
2018-06-02T05:24:35.197Z,4500.00
2018-06-02T05:25:35.174Z,4436.00
2018-06-02T05:26:35.158Z,4672.00
2018-06-02T05:27:35.132Z,4696.00
2018-06-02T05:28:35.110Z,4932.00
2018-06-02T05:29:35.088Z,4948.00
2018-06-02T05:30:35.072Z,4948.00
2018-06-02T05:31:35.046Z,4904.00
2018-06-02T05:32:35.025Z,5428.00
2018-06-02T05:33:35.003Z,5420.00
2018-06-02T05:34:34.981Z,5332.00
2018-06-02T05:35:34.961Z,4848.00
2018-06-02T05:36:34.940Z,4664.00
2018-06-02T05:37:34.916Z,4640.00
2018-06-02T05:38:34.897Z,4496.00
2018-06-02T05:39:34.873Z,4256.00
2018-06-02T05:40:34.906Z,3840.00
2018-06-02T05:41:34.830Z,3448.00
2018-06-02T05:42:34.808Z,3244.00
2018-06-02T05:43:34.790Z,3048.00
2018-06-02T05:44:34.769Z,3000.00
2018-06-02T05:45:34.744Z,2932.00
2018-06-02T05:46:34.723Z,2864.00
2018-06-02T05:47:34.702Z,2764.00
2018-06-02T05:48:34.689Z,2560.00
2018-06-02T05:49:34.813Z,2412.00
2018-06-02T05:50:34.638Z,2136.00
2018-06-02T05:51:34.616Z,2088.00
2018-06-02T05:52:34.598Z,2208.00
2018-06-02T05:53:34.572Z,2368.00
2018-06-02T05:54:34.557Z,2416.00
2018-06-02T05:55:34.529Z,2312.00
2018-06-02T05:56:34.513Z,2220.00
2018-06-02T05:57:34.489Z,2256.00
2018-06-02T05:58:34.465Z,2332.00
2018-06-02T05:59:34.442Z,2304.00
2018-06-02T06:00:34.422Z,2300.00
2018-06-02T06:01:34.398Z,2340.00
2018-06-02T06:02:34.376Z,2388.00
2018-06-02T06:03:34.354Z,2012.00
2018-06-02T06:04:34.333Z,1892.00
2018-06-02T06:05:34.316Z,1784.00
2018-06-02T06:06:34.288Z,2100.00
2018-06-02T06:07:34.768Z,2496.00
2018-06-02T06:08:34.246Z,2784.00
2018-06-02T06:09:34.228Z,2804.00
2018-06-02T06:10:34.202Z,2780.00
2018-06-02T06:11:34.180Z,2708.00
2018-06-02T06:12:34.158Z,2808.00
2018-06-02T06:13:34.135Z,3140.00
2018-06-02T06:14:34.119Z,3404.00
2018-06-02T06:15:34.094Z,3668.00
2018-06-02T06:16:34.073Z,3948.00
2018-06-02T06:17:34.050Z,4156.00
2018-06-02T06:18:34.031Z,3912.00
2018-06-02T06:19:34.047Z,3804.00
2018-06-02T06:20:33.983Z,3612.00
2018-06-02T06:21:33.963Z,3428.00
2018-06-02T06:22:33.939Z,3040.00
2018-06-02T06:23:33.918Z,2976.00
2018-06-02T06:24:33.896Z,3032.00
2018-06-02T06:25:33.875Z,3024.00
2018-06-02T06:26:33.852Z,3072.00
2018-06-02T06:27:33.830Z,2996.00
2018-06-02T06:28:33.813Z,3312.00
2018-06-02T06:29:33.787Z,3468.00
2018-06-02T06:30:33.763Z,3404.00
2018-06-02T06:31:33.749Z,3468.00
2018-06-02T06:32:33.720Z,3676.00
2018-06-02T06:33:33.701Z,3712.00
2018-06-02T06:34:33.675Z,3924.00
2018-06-02T06:35:33.653Z,4116.00
2018-06-02T06:36:33.630Z,4292.00
2018-06-02T06:37:33.608Z,4400.00
2018-06-02T06:38:33.586Z,4488.00
2018-06-02T06:39:33.563Z,4660.00
2018-06-02T06:40:33.541Z,4788.00
2018-06-02T06:41:33.518Z,4936.00
2018-06-02T06:42:33.650Z,5052.00
2018-06-02T06:43:33.474Z,5212.00
2018-06-02T06:44:33.479Z,5348.00
2018-06-02T06:45:33.427Z,5480.00
2018-06-02T06:46:33.440Z,5556.00
2018-06-02T06:47:33.389Z,5624.00
2018-06-02T06:48:33.369Z,5712.00
2018-06-02T06:49:33.346Z,5888.00
2018-06-02T06:50:33.319Z,5928.00
2018-06-02T06:51:33.294Z,6076.00
2018-06-02T06:52:33.271Z,6340.00
2018-06-02T06:53:33.255Z,6628.00
2018-06-02T06:54:33.229Z,6672.00
2018-06-02T06:55:33.205Z,7032.00
2018-06-02T06:56:33.183Z,7004.00
2018-06-02T06:57:33.159Z,7524.00
2018-06-02T06:58:33.137Z,7512.00
2018-06-02T06:59:33.115Z,7272.00
2018-06-02T07:00:33.097Z,7068.00
2018-06-02T07:01:33.076Z,7880.00
2018-06-02T07:02:33.048Z,7948.00
2018-06-02T07:03:33.025Z,7396.00
2018-06-02T07:04:33.004Z,7508.00
2018-06-02T07:05:32.982Z,8328.00
2018-06-02T07:06:33.163Z,7832.00
2018-06-02T07:07:32.937Z,8256.00
2018-06-02T07:08:32.916Z,8620.00
2018-06-02T07:09:32.897Z,9416.00
2018-06-02T07:10:32.873Z,9732.00
2018-06-02T07:11:32.848Z,9952.00
2018-06-02T07:12:32.832Z,10164.00
2018-06-02T07:13:32.801Z,10308.00
2018-06-02T07:14:32.780Z,10260.00
2018-06-02T07:15:32.757Z,10520.00
2018-06-02T07:16:32.736Z,10720.00
2018-06-02T07:17:32.712Z,10848.00
2018-06-02T07:18:32.690Z,11016.00
2018-06-02T07:19:32.669Z,11144.00
2018-06-02T07:20:32.646Z,11196.00
2018-06-02T07:21:32.624Z,11576.00
2018-06-02T07:22:32.606Z,11932.00
2018-06-02T07:23:32.578Z,12704.00
2018-06-02T07:24:32.559Z,13232.00
2018-06-02T07:25:32.536Z,13516.00
2018-06-02T07:26:32.513Z,13820.00
2018-06-02T07:27:32.523Z,14104.00
2018-06-02T07:28:32.472Z,14316.00
2018-06-02T07:29:32.445Z,14536.00
2018-06-02T07:30:32.425Z,14540.00
2018-06-02T07:31:32.403Z,14372.00
2018-06-02T07:32:32.381Z,14504.00
2018-06-02T07:33:32.359Z,14464.00
2018-06-02T07:34:32.340Z,14556.00
2018-06-02T07:35:32.315Z,14000.00
2018-06-02T07:36:32.294Z,13040.00
2018-06-02T07:37:32.270Z,12564.00
2018-06-02T07:38:32.250Z,11792.00
2018-06-02T07:39:32.226Z,10964.00
2018-06-02T07:40:32.205Z,9468.00
2018-06-02T07:41:32.182Z,8408.00
2018-06-02T07:42:32.159Z,7204.00
2018-06-02T07:43:32.138Z,7660.00
2018-06-02T07:44:32.116Z,7200.00
2018-06-02T07:45:32.094Z,6340.00
2018-06-02T07:46:32.074Z,6200.00
2018-06-02T07:47:32.050Z,6360.00
2018-06-02T07:48:32.033Z,6932.00
2018-06-02T07:49:32.006Z,7152.00
2018-06-02T07:50:31.986Z,7860.00
2018-06-02T07:51:31.965Z,8336.00
2018-06-02T07:52:31.940Z,8744.00
2018-06-02T07:53:31.917Z,9012.00
2018-06-02T07:54:31.895Z,10260.00
2018-06-02T07:55:31.879Z,11204.00
2018-06-02T07:56:31.857Z,11068.00
2018-06-02T07:57:31.832Z,11264.00
2018-06-02T07:58:31.814Z,9860.00
2018-06-02T07:59:31.785Z,9800.00
2018-06-02T08:00:31.764Z,10972.00
2018-06-02T08:01:31.741Z,11760.00
2018-06-02T08:02:31.724Z,12380.00
2018-06-02T08:03:31.701Z,12164.00
2018-06-02T08:04:31.682Z,14028.00
2018-06-02T08:05:31.653Z,15248.00
2018-06-02T08:06:31.632Z,17716.00
2018-06-02T08:07:31.611Z,20064.00
2018-06-02T08:08:31.665Z,23072.00
2018-06-02T08:09:31.566Z,23840.00
2018-06-02T08:10:31.545Z,23808.00
2018-06-02T08:11:31.524Z,22016.00
2018-06-02T08:12:31.506Z,26080.00
2018-06-02T08:13:31.480Z,23680.00
2018-06-02T08:14:31.457Z,24960.00
2018-06-02T08:15:31.438Z,24288.00
2018-06-02T08:16:31.569Z,25504.00
2018-06-02T08:17:31.398Z,22944.00
2018-06-02T08:18:31.377Z,27520.00
2018-06-02T08:19:31.358Z,32960.00
2018-06-02T08:20:31.343Z,35328.00
2018-06-02T08:21:31.313Z,36992.00
2018-06-02T08:22:31.495Z,37664.00
2018-06-02T08:23:31.270Z,37984.00
2018-06-02T08:24:31.253Z,35808.00
2018-06-02T08:26:13.587Z,32352.00
2018-06-02T08:27:13.362Z,30592.00
2018-06-02T08:28:14.157Z,29504.00
2018-06-02T08:29:13.321Z,28256.00
2018-06-02T08:30:13.305Z,31008.00
2018-06-02T08:31:13.280Z,32096.00
2018-06-02T08:32:13.275Z,30240.00
2018-06-02T08:33:13.242Z,28608.00
2018-06-02T08:34:13.220Z,32992.00
2018-06-02T08:35:13.200Z,31840.00
2018-06-02T08:36:13.194Z,31744.00
2018-06-02T08:37:13.159Z,30592.00
2018-06-02T08:38:13.145Z,31680.00
2018-06-02T08:39:13.119Z,28448.00
2018-06-02T08:40:13.109Z,32768.00
2018-06-02T08:41:13.080Z,35200.00
2018-06-02T08:42:13.064Z,35840.00
2018-06-02T08:43:13.039Z,34688.00
2018-06-02T08:44:13.020Z,30464.00
2018-06-02T08:45:13.000Z,27392.00
2018-06-02T08:46:12.981Z,25760.00
2018-06-02T08:47:12.959Z,23840.00
2018-06-02T08:48:12.940Z,23680.00
2018-06-02T08:49:12.920Z,23424.00
2018-06-02T08:50:12.903Z,21728.00
2018-06-02T08:51:12.884Z,20320.00
2018-06-02T08:52:12.861Z,20768.00
2018-06-02T08:53:12.840Z,18080.00
2018-06-02T08:54:12.824Z,17884.00
2018-06-02T08:55:12.800Z,17864.00
2018-06-02T08:56:12.780Z,16964.00
2018-06-02T08:57:12.759Z,20608.00
2018-06-02T08:58:12.742Z,23840.00
2018-06-02T08:59:12.719Z,30784.00
2018-06-02T09:00:12.706Z,35488.00
2018-06-02T09:01:12.679Z,32448.00
2018-06-02T09:02:12.659Z,29664.00
2018-06-02T09:03:12.638Z,25952.00
2018-06-02T09:04:12.824Z,26336.00
2018-06-02T09:05:12.598Z,23072.00
2018-06-02T09:06:12.580Z,24768.00
2018-06-02T09:07:12.558Z,25088.00
2018-06-02T09:08:12.538Z,25504.00
2018-06-02T09:09:12.522Z,23392.00
2018-06-02T09:10:12.498Z,19296.00
2018-06-02T09:11:12.480Z,15892.00
2018-06-02T09:12:12.462Z,12836.00
2018-06-02T09:13:12.441Z,13252.00
2018-06-02T09:14:12.420Z,15500.00
2018-06-02T09:15:12.404Z,15572.00
2018-06-02T09:16:12.378Z,16196.00
2018-06-02T09:17:12.371Z,17132.00
2018-06-02T09:18:12.340Z,22592.00
2018-06-02T09:19:12.317Z,30240.00
2018-06-02T09:20:12.296Z,32448.00
2018-06-02T09:21:12.276Z,27648.00
2018-06-02T09:22:12.260Z,25184.00
2018-06-02T09:23:12.237Z,27360.00
2018-06-02T09:24:12.217Z,26432.00
2018-06-02T09:25:12.202Z,34496.00
2018-06-02T09:26:12.176Z,37024.00
2018-06-02T09:27:12.164Z,34016.00
2018-06-02T09:28:12.134Z,27392.00
2018-06-02T09:29:12.116Z,21728.00
2018-06-02T09:30:12.095Z,21280.00
2018-06-02T09:31:12.073Z,21056.00
2018-06-02T09:32:12.057Z,18912.00
2018-06-02T09:33:12.084Z,17644.00
2018-06-02T09:34:12.020Z,16672.00
2018-06-02T09:35:12.111Z,17256.00
2018-06-02T09:36:11.975Z,18688.00
2018-06-02T09:37:11.955Z,20416.00
2018-06-02T09:38:11.935Z,25024.00
2018-06-02T09:39:11.915Z,30368.00
2018-06-02T09:40:11.900Z,35616.00
2018-06-02T09:41:11.875Z,32128.00
2018-06-02T09:42:11.855Z,30048.00
2018-06-02T09:43:11.835Z,30144.00
2018-06-02T09:44:11.814Z,30016.00
2018-06-02T09:45:11.794Z,33952.00
2018-06-02T09:46:11.775Z,39648.00
2018-06-02T09:47:11.754Z,42592.00
2018-06-02T09:48:11.761Z,41632.00
2018-06-02T09:49:11.715Z,41728.00
2018-06-02T09:50:11.696Z,46432.00
2018-06-02T09:51:11.676Z,51008.00
2018-06-02T09:52:11.656Z,51840.00
2018-06-02T09:53:11.641Z,52672.00
2018-06-02T09:54:11.619Z,49568.00
2018-06-02T09:55:11.598Z,42784.00
2018-06-02T09:56:11.584Z,38368.00
2018-06-02T09:57:11.560Z,32864.00
2018-06-02T09:58:11.542Z,31456.00
2018-06-02T09:59:11.523Z,28128.00
2018-06-02T10:00:11.504Z,21920.00
2018-06-02T10:01:11.491Z,18752.00
2018-06-02T10:02:11.472Z,17888.00
2018-06-02T10:03:11.451Z,17888.00
2018-06-02T10:04:11.432Z,16640.00
2018-06-02T10:05:11.411Z,15700.00
2018-06-02T10:06:11.395Z,14920.00
2018-06-02T10:07:11.374Z,14896.00
2018-06-02T10:08:11.353Z,14476.00
2018-06-02T10:09:11.336Z,13988.00
2018-06-02T10:10:11.315Z,14380.00
2018-06-02T10:11:11.296Z,14712.00
2018-06-02T10:12:11.278Z,14568.00
2018-06-02T10:13:11.256Z,13356.00
2018-06-02T10:14:11.242Z,12848.00
2018-06-02T10:15:11.220Z,12056.00
2018-06-02T10:16:11.198Z,11616.00
2018-06-02T10:17:11.181Z,11784.00
2018-06-02T10:18:11.159Z,12880.00
2018-06-02T10:19:11.139Z,13800.00
2018-06-02T10:20:11.119Z,15112.00
2018-06-02T10:21:11.099Z,17400.00
2018-06-02T10:22:11.082Z,22272.00
2018-06-02T10:23:11.059Z,27296.00
2018-06-02T10:24:11.044Z,30336.00
2018-06-02T10:25:11.021Z,32128.00
2018-06-02T10:26:11.000Z,34976.00
2018-06-02T10:27:10.980Z,39648.00
2018-06-02T10:28:10.959Z,42016.00
2018-06-02T10:29:10.942Z,46496.00
2018-06-02T10:30:10.920Z,50720.00
2018-06-02T10:31:10.900Z,52704.00
2018-06-02T10:32:10.879Z,53792.00
2018-06-02T10:33:10.861Z,49152.00
2018-06-02T10:34:10.842Z,42144.00
2018-06-02T10:35:10.822Z,40448.00
2018-06-02T10:36:10.802Z,34496.00
2018-06-02T10:37:10.785Z,32320.00
2018-06-02T10:38:10.766Z,29472.00
2018-06-02T10:39:10.748Z,25856.00
2018-06-02T10:40:10.728Z,24064.00
2018-06-02T10:41:10.709Z,20832.00
2018-06-02T10:42:10.694Z,19616.00
2018-06-02T10:43:10.674Z,19680.00
2018-06-02T10:44:10.654Z,19232.00
2018-06-02T10:45:10.636Z,19584.00
2018-06-02T10:46:10.617Z,21536.00
2018-06-02T10:47:10.598Z,21056.00
2018-06-02T10:48:10.579Z,21280.00
2018-06-02T10:49:10.560Z,21184.00
2018-06-02T10:50:10.542Z,19680.00
2018-06-02T10:51:10.526Z,17328.00
2018-06-02T10:52:10.503Z,16116.00
2018-06-02T10:53:10.485Z,15288.00
2018-06-02T10:54:10.468Z,14404.00
2018-06-02T10:55:10.454Z,13440.00
2018-06-02T10:56:10.428Z,12592.00
2018-06-02T10:57:10.408Z,12288.00
2018-06-02T10:58:10.388Z,12304.00
2018-06-02T10:59:10.368Z,11772.00
2018-06-02T11:00:10.348Z,11080.00
2018-06-02T11:01:10.330Z,10872.00
2018-06-02T11:02:10.310Z,11016.00
2018-06-02T11:03:10.442Z,11092.00
2018-06-02T11:04:10.272Z,11016.00
2018-06-02T11:05:10.255Z,11036.00
2018-06-02T11:06:10.236Z,10672.00
2018-06-02T11:07:10.213Z,10136.00
2018-06-02T11:08:10.202Z,10160.00
2018-06-02T11:09:10.202Z,10348.00
2018-06-02T11:10:10.153Z,10528.00
2018-06-02T11:11:10.131Z,10432.00
2018-06-02T11:12:10.111Z,10488.00
2018-06-02T11:13:10.108Z,10848.00
2018-06-02T11:14:10.072Z,11728.00
2018-06-02T11:15:10.053Z,12692.00
2018-06-02T11:16:10.030Z,12748.00
2018-06-02T11:17:10.011Z,12300.00
2018-06-02T11:18:09.993Z,11680.00
2018-06-02T11:19:09.973Z,11316.00
2018-06-02T11:20:10.152Z,11524.00
2018-06-02T11:21:09.929Z,11156.00
2018-06-02T11:22:09.909Z,11332.00
2018-06-02T11:23:09.892Z,11620.00
2018-06-02T11:24:09.868Z,12224.00
2018-06-02T11:25:09.847Z,12204.00
2018-06-02T11:26:09.827Z,12244.00
2018-06-02T11:27:09.806Z,11868.00
2018-06-02T11:28:09.785Z,12016.00
2018-06-02T11:29:09.765Z,12608.00
2018-06-02T11:30:09.745Z,12608.00
2018-06-02T11:31:09.723Z,11772.00
2018-06-02T11:32:09.701Z,11448.00
2018-06-02T11:33:09.684Z,11412.00
2018-06-02T11:34:09.674Z,11744.00
2018-06-02T11:35:09.640Z,12428.00
2018-06-02T11:36:09.628Z,12412.00
2018-06-02T11:37:09.606Z,12172.00
2018-06-02T11:38:09.580Z,12152.00
2018-06-02T11:39:09.708Z,12864.00
2018-06-02T11:40:09.537Z,14284.00
2018-06-02T11:41:09.520Z,15284.00
2018-06-02T11:42:09.496Z,15208.00
2018-06-02T11:43:09.481Z,14944.00
2018-06-02T11:44:09.528Z,15176.00
2018-06-02T11:45:09.435Z,15520.00
2018-06-02T11:46:09.414Z,16096.00
2018-06-02T11:47:09.394Z,16136.00
2018-06-02T11:48:09.371Z,16304.00
2018-06-02T11:49:09.351Z,16388.00
2018-06-02T11:50:09.333Z,16632.00
2018-06-02T11:51:09.313Z,15964.00
2018-06-02T11:52:09.289Z,16464.00
2018-06-02T11:53:09.269Z,16156.00
2018-06-02T11:54:09.248Z,15172.00
2018-06-02T11:55:09.227Z,13992.00
2018-06-02T11:56:09.211Z,13536.00
2018-06-02T11:57:09.189Z,13620.00
2018-06-02T11:58:09.167Z,14568.00
2018-06-02T11:59:09.146Z,15332.00
2018-06-02T12:00:09.124Z,15056.00
2018-06-02T12:01:09.109Z,14092.00
2018-06-02T12:02:09.085Z,14036.00
2018-06-02T12:03:09.066Z,14216.00
2018-06-02T12:04:09.043Z,15012.00
2018-06-02T12:05:09.024Z,16668.00
2018-06-02T12:06:09.003Z,18496.00
2018-06-02T12:07:08.981Z,18976.00
2018-06-02T12:08:08.961Z,16444.00
2018-06-02T12:09:08.941Z,15788.00
2018-06-02T12:10:08.927Z,16808.00
2018-06-02T12:11:08.911Z,17648.00
2018-06-02T12:12:08.879Z,17748.00
2018-06-02T12:13:08.859Z,16748.00
2018-06-02T12:14:08.839Z,15664.00